sensor_id;sensor_type;location;lat;lon;timestamp;pressure;altitude;pressure_sealevel;temperature;humidity
70434;BME280;57876;47.792;12.960;2023-11-19T00:01:37;96949.06;;;19.72;52.13
70434;BME280;57876;47.792;12.960;2023-11-19T00:04:02;96938.09;;;19.72;51.96
70434;BME280;57876;47.792;12.960;2023-11-19T00:06:28;96933.75;;;19.71;52.05
70434;BME280;57876;47.792;12.960;2023-11-19T00:08:53;96923.25;;;19.73;52.09
70434;BME280;57876;47.792;12.960;2023-11-19T00:11:17;96926.78;;;19.74;51.97
70434;BME280;57876;47.792;12.960;2023-11-19T00:13:42;96912.25;;;19.73;52.11
70434;BME280;57876;47.792;12.960;2023-11-19T00:16:07;96906.41;;;19.75;52.18
70434;BME280;57876;47.792;12.960;2023-11-19T00:18:32;96903.66;;;19.75;51.93
70434;BME280;57876;47.792;12.960;2023-11-19T00:20:57;96901.72;;;19.75;52.10
70434;BME280;57876;47.792;12.960;2023-11-19T00:23:21;96914.31;;;19.76;52.13
70434;BME280;57876;47.792;12.960;2023-11-19T00:25:45;96906.09;;;19.76;52.08
70434;BME280;57876;47.792;12.960;2023-11-19T00:28:12;96901.41;;;19.77;51.89
70434;BME280;57876;47.792;12.960;2023-11-19T00:30:36;96901.41;;;19.77;52.10
70434;BME280;57876;47.792;12.960;2023-11-19T00:33:00;96904.47;;;19.75;52.13
70434;BME280;57876;47.792;12.960;2023-11-19T00:35:25;96887.22;;;19.75;51.85
70434;BME280;57876;47.792;12.960;2023-11-19T00:37:49;96892.69;;;19.75;51.96
70434;BME280;57876;47.792;12.960;2023-11-19T00:40:14;96885.63;;;19.74;52.16
70434;BME280;57876;47.792;12.960;2023-11-19T00:42:42;96878.50;;;19.73;51.97
70434;BME280;57876;47.792;12.960;2023-11-19T00:45:07;96880.13;;;19.74;52.00
70434;BME280;57876;47.792;12.960;2023-11-19T00:47:34;96881.59;;;19.71;51.96
70434;BME280;57876;47.792;12.960;2023-11-19T00:49:59;96873.72;;;19.70;51.90
70434;BME280;57876;47.792;12.960;2023-11-19T00:52:23;96875.66;;;19.69;52.11
70434;BME280;57876;47.792;12.960;2023-11-19T00:54:47;96864.22;;;19.67;52.00
70434;BME280;57876;47.792;12.960;2023-11-19T00:57:12;96870.50;;;19.68;52.09
70434;BME280;57876;47.792;12.960;2023-11-19T00:59:36;96871.66;;;19.67;51.89
70434;BME280;57876;47.792;12.960;2023-11-19T01:02:01;96880.69;;;19.67;52.16
70434;BME280;57876;47.792;12.960;2023-11-19T01:04:39;96875.53;;;19.66;52.15
70434;BME280;57876;47.792;12.960;2023-11-19T01:07:04;96878.25;;;19.66;52.19
70434;BME280;57876;47.792;12.960;2023-11-19T01:09:29;96865.66;;;19.65;52.10
70434;BME280;57876;47.792;12.960;2023-11-19T01:11:58;96855.97;;;19.67;52.13
70434;BME280;57876;47.792;12.960;2023-11-19T01:14:24;96859.06;;;19.66;52.14
70434;BME280;57876;47.792;12.960;2023-11-19T01:16:49;96859.53;;;19.68;52.00
70434;BME280;57876;47.792;12.960;2023-11-19T01:19:13;96852.13;;;19.68;51.89
70434;BME280;57876;47.792;12.960;2023-11-19T01:21:38;96848.22;;;19.69;52.12
70434;BME280;57876;47.792;12.960;2023-11-19T01:24:02;96860.78;;;19.70;52.13
70434;BME280;57876;47.792;12.960;2023-11-19T01:26:30;96860.44;;;19.72;52.04
70434;BME280;57876;47.792;12.960;2023-11-19T01:28:54;96858.50;;;19.72;52.13
70434;BME280;57876;47.792;12.960;2023-11-19T01:31:19;96861.25;;;19.72;52.21
70434;BME280;57876;47.792;12.960;2023-11-19T01:33:43;96853.00;;;19.72;52.11
70434;BME280;57876;47.792;12.960;2023-11-19T01:36:13;96853.00;;;19.72;51.89
70434;BME280;57876;47.792;12.960;2023-11-19T01:38:37;96847.88;;;19.71;52.20
70434;BME280;57876;47.792;12.960;2023-11-19T01:41:02;96847.06;;;19.70;52.02
70434;BME280;57876;47.792;12.960;2023-11-19T01:43:34;96849.81;;;19.70;52.11
70434;BME280;57876;47.792;12.960;2023-11-19T01:45:58;96838.03;;;19.70;51.97
70434;BME280;57876;47.792;12.960;2023-11-19T01:48:23;96845.47;;;19.69;52.23
70434;BME280;57876;47.792;12.960;2023-11-19T01:50:47;96840.31;;;19.68;52.18
70434;BME280;57876;47.792;12.960;2023-11-19T01:53:12;96832.09;;;19.68;52.00
70434;BME280;57876;47.792;12.960;2023-11-19T01:55:36;96826.13;;;19.66;51.75
70434;BME280;57876;47.792;12.960;2023-11-19T01:58:01;96823.38;;;19.66;51.95
70434;BME280;57876;47.792;12.960;2023-11-19T02:00:26;96823.38;;;19.66;52.19
70434;BME280;57876;47.792;12.960;2023-11-19T02:02:52;96818.22;;;19.64;52.12
70434;BME280;57876;47.792;12.960;2023-11-19T02:05:19;96813.91;;;19.63;51.91
70434;BME280;57876;47.792;12.960;2023-11-19T02:07:43;96800.50;;;19.62;52.01
70434;BME280;57876;47.792;12.960;2023-11-19T02:10:09;96811.47;;;19.62;52.01
70434;BME280;57876;47.792;12.960;2023-11-19T02:12:40;96802.44;;;19.61;52.28
70434;BME280;57876;47.792;12.960;2023-11-19T02:15:07;96800.50;;;19.62;51.79
70434;BME280;57876;47.792;12.960;2023-11-19T02:17:35;96786.78;;;19.62;52.10
70434;BME280;57876;47.792;12.960;2023-11-19T02:20:01;96790.00;;;19.64;52.08
70434;BME280;57876;47.792;12.960;2023-11-19T02:22:27;96785.31;;;19.64;52.17
70434;BME280;57876;47.792;12.960;2023-11-19T02:24:59;96776.75;;;19.66;52.11
70434;BME280;57876;47.792;12.960;2023-11-19T02:30:11;96779.94;;;19.68;52.08
70434;BME280;57876;47.792;12.960;2023-11-19T02:32:38;96776.88;;;19.69;52.12
70434;BME280;57876;47.792;12.960;2023-11-19T02:35:05;96767.84;;;19.69;52.12
70434;BME280;57876;47.792;12.960;2023-11-19T02:37:29;96762.34;;;19.69;52.08
70434;BME280;57876;47.792;12.960;2023-11-19T02:39:54;96756.06;;;19.68;52.29
70434;BME280;57876;47.792;12.960;2023-11-19T02:42:18;96766.69;;;19.70;52.12
70434;BME280;57876;47.792;12.960;2023-11-19T02:44:45;96751.38;;;19.69;51.78
70434;BME280;57876;47.792;12.960;2023-11-19T02:47:10;96754.13;;;19.69;52.08
70434;BME280;57876;47.792;12.960;2023-11-19T02:49:34;96748.19;;;19.67;51.82
70434;BME280;57876;47.792;12.960;2023-11-19T02:52:00;96753.66;;;19.67;52.05
70434;BME280;57876;47.792;12.960;2023-11-19T02:54:24;96743.81;;;19.66;52.09
70434;BME280;57876;47.792;12.960;2023-11-19T02:56:51;96744.94;;;19.65;52.10
70434;BME280;57876;47.792;12.960;2023-11-19T02:59:19;96741.41;;;19.64;52.24
70434;BME280;57876;47.792;12.960;2023-11-19T03:01:51;96735.13;;;19.64;52.04
70434;BME280;57876;47.792;12.960;2023-11-19T03:04:16;96733.50;;;19.63;52.11
70434;BME280;57876;47.792;12.960;2023-11-19T03:06:44;96717.41;;;19.61;52.13
70434;BME280;57876;47.792;12.960;2023-11-19T03:09:08;96722.44;;;19.59;52.16
70434;BME280;57876;47.792;12.960;2023-11-19T03:11:34;96725.97;;;19.59;52.24
70434;BME280;57876;47.792;12.960;2023-11-19T03:13:59;96720.03;;;19.57;52.25
70434;BME280;57876;47.792;12.960;2023-11-19T03:16:23;96718.09;;;19.58;52.23
70434;BME280;57876;47.792;12.960;2023-11-19T03:18:47;96724.38;;;19.58;52.15
70434;BME280;57876;47.792;12.960;2023-11-19T03:21:12;96712.59;;;19.58;52.22
70434;BME280;57876;47.792;12.960;2023-11-19T03:23:36;96717.72;;;19.59;52.14
70434;BME280;57876;47.792;12.960;2023-11-19T03:26:01;96698.53;;;19.59;52.19
70434;BME280;57876;47.792;12.960;2023-11-19T03:28:29;96688.38;;;19.60;52.39
70434;BME280;57876;47.792;12.960;2023-11-19T03:30:55;96687.91;;;19.58;52.21
70434;BME280;57876;47.792;12.960;2023-11-19T03:33:19;96682.06;;;19.59;51.82
70434;BME280;57876;47.792;12.960;2023-11-19T03:35:43;96676.56;;;19.59;52.14
70434;BME280;57876;47.792;12.960;2023-11-19T03:38:08;96677.75;;;19.58;51.98
70434;BME280;57876;47.792;12.960;2023-11-19T03:40:32;96665.97;;;19.58;52.24
70434;BME280;57876;47.792;12.960;2023-11-19T03:42:57;96660.13;;;19.59;52.36
70434;BME280;57876;47.792;12.960;2023-11-19T03:45:22;96670.75;;;19.61;52.39
70434;BME280;57876;47.792;12.960;2023-11-19T03:47:46;96649.97;;;19.60;52.22
70434;BME280;57876;47.792;12.960;2023-11-19T03:50:11;96653.94;;;19.63;52.33
70434;BME280;57876;47.792;12.960;2023-11-19T03:52:36;96649.28;;;19.63;52.12
70434;BME280;57876;47.792;12.960;2023-11-19T03:55:00;96637.47;;;19.63;52.19
70434;BME280;57876;47.792;12.960;2023-11-19T03:57:25;96661.03;;;19.64;52.20
70434;BME280;57876;47.792;12.960;2023-11-19T03:59:49;96641.84;;;19.64;52.11
70434;BME280;57876;47.792;12.960;2023-11-19T04:02:15;96650.84;;;19.64;52.29
70434;BME280;57876;47.792;12.960;2023-11-19T04:04:39;96643.91;;;19.67;52.11
70434;BME280;57876;47.792;12.960;2023-11-19T04:07:04;96632.44;;;19.65;51.83
70434;BME280;57876;47.792;12.960;2023-11-19T04:09:29;96643.41;;;19.65;52.21
70434;BME280;57876;47.792;12.960;2023-11-19T04:11:54;96641.47;;;19.65;52.16
70434;BME280;57876;47.792;12.960;2023-11-19T04:14:18;96629.69;;;19.65;52.10
70434;BME280;57876;47.792;12.960;2023-11-19T04:16:43;96636.34;;;19.64;52.25
70434;BME280;57876;47.792;12.960;2023-11-19T04:19:07;96635.97;;;19.65;52.35
70434;BME280;57876;47.792;12.960;2023-11-19T04:21:32;96630.50;;;19.65;52.17
70434;BME280;57876;47.792;12.960;2023-11-19T04:23:57;96633.22;;;19.65;52.32
70434;BME280;57876;47.792;12.960;2023-11-19T04:26:21;96631.78;;;19.68;52.14
70434;BME280;57876;47.792;12.960;2023-11-19T04:28:46;96635.34;;;19.68;52.29
70434;BME280;57876;47.792;12.960;2023-11-19T04:31:10;96625.94;;;19.69;52.64
70434;BME280;57876;47.792;12.960;2023-11-19T04:33:35;96632.22;;;19.70;52.31
70434;BME280;57876;47.792;12.960;2023-11-19T04:35:59;96623.66;;;19.71;52.29
70434;BME280;57876;47.792;12.960;2023-11-19T04:38:23;96631.53;;;19.73;52.20
70434;BME280;57876;47.792;12.960;2023-11-19T04:40:48;96630.03;;;19.75;52.32
70434;BME280;57876;47.792;12.960;2023-11-19T04:43:12;96630.81;;;19.76;51.99
70434;BME280;57876;47.792;12.960;2023-11-19T04:45:37;96634.03;;;19.78;51.99
70434;BME280;57876;47.792;12.960;2023-11-19T04:48:01;96630.59;;;19.81;52.18
70434;BME280;57876;47.792;12.960;2023-11-19T04:50:26;96629.00;;;19.80;52.09
70434;BME280;57876;47.792;12.960;2023-11-19T04:52:51;96645.47;;;19.80;52.16
70434;BME280;57876;47.792;12.960;2023-11-19T04:55:15;96635.75;;;19.83;52.05
70434;BME280;57876;47.792;12.960;2023-11-19T04:57:40;96641.22;;;19.83;52.03
70434;BME280;57876;47.792;12.960;2023-11-19T05:00:05;96638.16;;;19.84;51.98
70434;BME280;57876;47.792;12.960;2023-11-19T05:02:30;96641.56;;;19.81;52.06
70434;BME280;57876;47.792;12.960;2023-11-19T05:04:55;96642.38;;;19.82;51.97
70434;BME280;57876;47.792;12.960;2023-11-19T05:07:19;96643.19;;;19.82;52.13
70434;BME280;57876;47.792;12.960;2023-11-19T05:09:43;96648.66;;;19.82;52.16
70434;BME280;57876;47.792;12.960;2023-11-19T05:12:08;96662.38;;;19.82;52.12
70434;BME280;57876;47.792;12.960;2023-11-19T05:14:36;96660.78;;;19.81;52.27
70434;BME280;57876;47.792;12.960;2023-11-19T05:17:00;96647.41;;;19.79;52.36
70434;BME280;57876;47.792;12.960;2023-11-19T05:19:24;96672.13;;;19.79;52.00
70434;BME280;57876;47.792;12.960;2023-11-19T05:21:49;96658.41;;;19.79;52.13
70434;BME280;57876;47.792;12.960;2023-11-19T05:24:16;96663.09;;;19.79;52.22
70434;BME280;57876;47.792;12.960;2023-11-19T05:26:40;96658.72;;;19.78;52.25
70434;BME280;57876;47.792;12.960;2023-11-19T05:29:05;96657.59;;;19.79;52.21
70434;BME280;57876;47.792;12.960;2023-11-19T05:31:29;96658.41;;;19.79;52.11
70434;BME280;57876;47.792;12.960;2023-11-19T05:33:53;96658.41;;;19.79;52.13
70434;BME280;57876;47.792;12.960;2023-11-19T05:36:18;96667.88;;;19.82;52.11
70434;BME280;57876;47.792;12.960;2023-11-19T05:38:42;96667.88;;;19.82;52.09
70434;BME280;57876;47.792;12.960;2023-11-19T05:41:07;96660.09;;;19.84;52.13
70434;BME280;57876;47.792;12.960;2023-11-19T05:43:32;96669.91;;;19.85;52.25
70434;BME280;57876;47.792;12.960;2023-11-19T05:45:56;96654.25;;;19.86;52.07
70434;BME280;57876;47.792;12.960;2023-11-19T05:48:21;96666.03;;;19.86;52.05
70434;BME280;57876;47.792;12.960;2023-11-19T05:50:45;96661.00;;;19.88;52.06
70434;BME280;57876;47.792;12.960;2023-11-19T05:53:10;96664.19;;;19.90;52.05
70434;BME280;57876;47.792;12.960;2023-11-19T05:55:34;96681.44;;;19.91;51.80
70434;BME280;57876;47.792;12.960;2023-11-19T05:58:00;96672.44;;;19.90;52.06
70434;BME280;57876;47.792;12.960;2023-11-19T06:00:24;96669.69;;;19.90;52.13
70434;BME280;57876;47.792;12.960;2023-11-19T06:02:50;96673.56;;;19.89;52.20
70434;BME280;57876;47.792;12.960;2023-11-19T06:05:15;96670.81;;;19.89;52.07
70434;BME280;57876;47.792;12.960;2023-11-19T06:07:39;96672.75;;;19.89;52.15
70434;BME280;57876;47.792;12.960;2023-11-19T06:10:05;96673.56;;;19.89;52.11
70434;BME280;57876;47.792;12.960;2023-11-19T06:12:30;96661.00;;;19.88;51.86
70434;BME280;57876;47.792;12.960;2023-11-19T06:14:56;96670.38;;;19.87;52.27
70434;BME280;57876;47.792;12.960;2023-11-19T06:17:20;96667.97;;;19.86;52.11
70434;BME280;57876;47.792;12.960;2023-11-19T06:19:45;96676.22;;;19.86;52.05
70434;BME280;57876;47.792;12.960;2023-11-19T06:22:09;96672.66;;;19.85;52.35
70434;BME280;57876;47.792;12.960;2023-11-19T06:24:34;96677.38;;;19.85;52.20
70434;BME280;57876;47.792;12.960;2023-11-19T06:26:58;96662.03;;;19.84;52.21
70434;BME280;57876;47.792;12.960;2023-11-19T06:29:22;96674.94;;;19.83;52.08
70434;BME280;57876;47.792;12.960;2023-11-19T06:31:47;96696.56;;;19.85;52.08
70434;BME280;57876;47.792;12.960;2023-11-19T06:34:14;96707.19;;;19.86;51.97
70434;BME280;57876;47.792;12.960;2023-11-19T06:36:39;96696.22;;;19.86;52.23
70434;BME280;57876;47.792;12.960;2023-11-19T06:39:03;96703.31;;;19.87;51.93
70434;BME280;57876;47.792;12.960;2023-11-19T06:41:28;96704.91;;;19.88;52.04
70434;BME280;57876;47.792;12.960;2023-11-19T06:43:53;96722.16;;;19.89;51.87
70434;BME280;57876;47.792;12.960;2023-11-19T06:46:18;96717.94;;;19.91;52.02
70434;BME280;57876;47.792;12.960;2023-11-19T06:48:42;96715.19;;;19.91;52.20
70434;BME280;57876;47.792;12.960;2023-11-19T06:51:08;96722.72;;;19.94;52.29
70434;BME280;57876;47.792;12.960;2023-11-19T06:53:33;96714.16;;;19.96;51.97
70434;BME280;57876;47.792;12.960;2023-11-19T06:55:57;96709.91;;;19.98;51.98
70434;BME280;57876;47.792;12.960;2023-11-19T06:58:21;96706.84;;;20.00;51.99
70434;BME280;57876;47.792;12.960;2023-11-19T07:00:46;96703.72;;;20.01;52.14
70434;BME280;57876;47.792;12.960;2023-11-19T07:03:11;96712.75;;;20.02;52.25
70434;BME280;57876;47.792;12.960;2023-11-19T07:05:37;96726.94;;;20.04;52.11
70434;BME280;57876;47.792;12.960;2023-11-19T07:08:06;96716.28;;;20.02;51.91
70434;BME280;57876;47.792;12.960;2023-11-19T07:10:31;96727.28;;;20.02;52.07
70434;BME280;57876;47.792;12.960;2023-11-19T07:12:56;96730.00;;;20.02;51.89
70434;BME280;57876;47.792;12.960;2023-11-19T07:15:21;96735.50;;;20.02;51.83
70434;BME280;57876;47.792;12.960;2023-11-19T07:17:46;96746.06;;;20.00;52.03
70434;BME280;57876;47.792;12.960;2023-11-19T07:20:11;96741.38;;;20.01;51.95
70434;BME280;57876;47.792;12.960;2023-11-19T07:22:39;96740.56;;;20.00;52.00
70434;BME280;57876;47.792;12.960;2023-11-19T07:25:03;96741.69;;;19.99;51.89
70434;BME280;57876;47.792;12.960;2023-11-19T07:27:28;96744.81;;;19.98;51.98
70434;BME280;57876;47.792;12.960;2023-11-19T07:29:52;96737.69;;;19.97;52.09
70434;BME280;57876;47.792;12.960;2023-11-19T07:32:17;96751.78;;;19.95;52.15
70434;BME280;57876;47.792;12.960;2023-11-19T07:34:42;96741.94;;;19.94;51.98
70434;BME280;57876;47.792;12.960;2023-11-19T07:37:06;96732.44;;;19.92;52.17
70434;BME280;57876;47.792;12.960;2023-11-19T07:39:31;96730.53;;;19.92;51.97
70434;BME280;57876;47.792;12.960;2023-11-19T07:41:56;96749.28;;;19.90;51.98
70434;BME280;57876;47.792;12.960;2023-11-19T07:44:21;96741.03;;;19.90;52.03
70434;BME280;57876;47.792;12.960;2023-11-19T07:46:45;96743.78;;;19.90;52.12
70434;BME280;57876;47.792;12.960;2023-11-19T07:49:10;96735.56;;;19.90;52.07
70434;BME280;57876;47.792;12.960;2023-11-19T07:51:35;96739.88;;;19.91;51.96
70434;BME280;57876;47.792;12.960;2023-11-19T07:53:59;96739.88;;;19.91;52.13
70434;BME280;57876;47.792;12.960;2023-11-19T07:56:23;96743.44;;;19.92;52.15
70434;BME280;57876;47.792;12.960;2023-11-19T07:58:48;96734.06;;;19.93;52.30
70434;BME280;57876;47.792;12.960;2023-11-19T08:01:12;96732.13;;;19.93;51.96
70434;BME280;57876;47.792;12.960;2023-11-19T08:03:37;96727.88;;;19.96;51.86
70434;BME280;57876;47.792;12.960;2023-11-19T08:06:03;96724.78;;;19.97;51.97
70434;BME280;57876;47.792;12.960;2023-11-19T08:08:28;96733.38;;;19.96;51.93
70434;BME280;57876;47.792;12.960;2023-11-19T08:10:54;96728.34;;;19.98;52.08
70434;BME280;57876;47.792;12.960;2023-11-19T08:13:20;96737.38;;;19.98;51.91
70434;BME280;57876;47.792;12.960;2023-11-19T08:15:47;96734.97;;;19.97;52.16
70434;BME280;57876;47.792;12.960;2023-11-19T08:18:11;96733.81;;;19.98;52.13
70434;BME280;57876;47.792;12.960;2023-11-19T08:20:36;96736.13;;;19.96;51.97
70434;BME280;57876;47.792;12.960;2023-11-19T08:23:02;96721.59;;;19.95;52.07
70434;BME280;57876;47.792;12.960;2023-11-19T08:25:27;96734.84;;;19.93;52.11
70434;BME280;57876;47.792;12.960;2023-11-19T08:27:52;96726.97;;;19.92;51.98
70434;BME280;57876;47.792;12.960;2023-11-19T08:30:16;96737.94;;;19.92;52.26
70434;BME280;57876;47.792;12.960;2023-11-19T08:32:41;96728.44;;;19.89;51.88
70434;BME280;57876;47.792;12.960;2023-11-19T08:35:05;96730.41;;;19.89;52.01
70434;BME280;57876;47.792;12.960;2023-11-19T08:37:30;96718.16;;;19.86;52.06
70434;BME280;57876;47.792;12.960;2023-11-19T08:39:55;96717.38;;;19.86;51.96
70434;BME280;57876;47.792;12.960;2023-11-19T08:42:20;96714.53;;;19.82;52.12
70434;BME280;57876;47.792;12.960;2023-11-19T08:44:49;96708.25;;;19.82;52.09
70434;BME280;57876;47.792;12.960;2023-11-19T08:47:14;96720.72;;;19.79;51.76
70434;BME280;57876;47.792;12.960;2023-11-19T08:49:40;96719.91;;;19.78;52.12
70434;BME280;57876;47.792;12.960;2023-11-19T08:52:05;96726.88;;;19.76;52.02
70434;BME280;57876;47.792;12.960;2023-11-19T08:54:31;96722.53;;;19.75;51.82
70434;BME280;57876;47.792;12.960;2023-11-19T08:56:57;96713.84;;;19.73;52.05
70434;BME280;57876;47.792;12.960;2023-11-19T08:59:21;96710.41;;;19.76;52.10
70434;BME280;57876;47.792;12.960;2023-11-19T09:01:46;96715.91;;;19.76;52.18
70434;BME280;57876;47.792;12.960;2023-11-19T09:04:10;96716.72;;;19.76;51.91
70434;BME280;57876;47.792;12.960;2023-11-19T09:06:35;96718.66;;;19.76;52.09
70434;BME280;57876;47.792;12.960;2023-11-19T09:09:00;96726.22;;;19.79;52.06
70434;BME280;57876;47.792;12.960;2023-11-19T09:11:26;96730.88;;;19.78;51.81
70434;BME280;57876;47.792;12.960;2023-11-19T09:13:51;96730.09;;;19.78;52.05
70434;BME280;57876;47.792;12.960;2023-11-19T09:16:15;96727.34;;;19.78;52.15
70434;BME280;57876;47.792;12.960;2023-11-19T09:18:40;96739.94;;;19.79;51.74
70434;BME280;57876;47.792;12.960;2023-11-19T09:21:04;96740.72;;;19.79;51.97
70434;BME280;57876;47.792;12.960;2023-11-19T09:23:29;96727.81;;;19.80;52.06
70434;BME280;57876;47.792;12.960;2023-11-19T09:25:56;96732.13;;;19.81;51.79
70434;BME280;57876;47.792;12.960;2023-11-19T09:28:21;96729.84;;;19.83;52.36
70434;BME280;57876;47.792;12.960;2023-11-19T09:30:45;96736.94;;;19.84;52.16
70434;BME280;57876;47.792;12.960;2023-11-19T09:33:10;96738.53;;;19.85;52.16
70434;BME280;57876;47.792;12.960;2023-11-19T09:35:34;96740.13;;;19.86;52.30
70434;BME280;57876;47.792;12.960;2023-11-19T09:37:58;96731.19;;;19.89;52.06
70434;BME280;57876;47.792;12.960;2023-11-19T09:40:23;96724.13;;;19.88;52.04
70434;BME280;57876;47.792;12.960;2023-11-19T09:42:48;96717.47;;;19.89;51.86
70434;BME280;57876;47.792;12.960;2023-11-19T09:45:17;96723.78;;;19.90;52.00
70434;BME280;57876;47.792;12.960;2023-11-19T09:47:43;96727.31;;;19.90;52.15
70434;BME280;57876;47.792;12.960;2023-11-19T09:50:10;96730.06;;;19.90;52.24
70434;BME280;57876;47.792;12.960;2023-11-19T09:52:38;96715.88;;;19.88;52.15
70434;BME280;57876;47.792;12.960;2023-11-19T09:55:02;96717.84;;;19.88;52.09
70434;BME280;57876;47.792;12.960;2023-11-19T09:57:27;96715.88;;;19.88;52.08
70434;BME280;57876;47.792;12.960;2023-11-19T09:59:55;96700.13;;;19.85;52.11
70434;BME280;57876;47.792;12.960;2023-11-19T10:02:20;96701.69;;;19.86;52.10
70434;BME280;57876;47.792;12.960;2023-11-19T10:04:46;96716.59;;;19.85;51.99
70434;BME280;57876;47.792;12.960;2023-11-19T10:07:11;96715.78;;;19.85;51.96
70434;BME280;57876;47.792;12.960;2023-11-19T10:09:36;96712.25;;;19.84;51.95
70434;BME280;57876;47.792;12.960;2023-11-19T10:12:00;96722.41;;;19.84;52.31
70434;BME280;57876;47.792;12.960;2023-11-19T10:14:27;96721.59;;;19.83;52.17
70434;BME280;57876;47.792;12.960;2023-11-19T10:16:52;96711.44;;;19.84;51.95
70434;BME280;57876;47.792;12.960;2023-11-19T10:19:20;96709.50;;;19.84;52.08
70434;BME280;57876;47.792;12.960;2023-11-19T10:21:45;96701.28;;;19.84;52.11
70434;BME280;57876;47.792;12.960;2023-11-19T10:24:10;96700.13;;;19.85;52.19
70434;BME280;57876;47.792;12.960;2023-11-19T10:26:36;96690.72;;;19.86;51.98
70434;BME280;57876;47.792;12.960;2023-11-19T10:29:01;96688.81;;;19.87;51.94
70434;BME280;57876;47.792;12.960;2023-11-19T10:31:25;96688.44;;;19.88;52.32
70434;BME280;57876;47.792;12.960;2023-11-19T10:33:50;96693.94;;;19.88;51.95
70434;BME280;57876;47.792;12.960;2023-11-19T10:36:15;96679.88;;;19.90;51.90
70434;BME280;57876;47.792;12.960;2023-11-19T10:38:40;96684.53;;;19.89;52.16
70434;BME280;57876;47.792;12.960;2023-11-19T10:41:29;96675.16;;;19.90;51.99
70434;BME280;57876;47.792;12.960;2023-11-19T10:43:54;96669.69;;;19.90;52.08
70434;BME280;57876;47.792;12.960;2023-11-19T10:46:19;96683.88;;;19.92;52.13
70434;BME280;57876;47.792;12.960;2023-11-19T10:48:47;96679.88;;;19.90;52.08
70434;BME280;57876;47.792;12.960;2023-11-19T10:51:13;96683.41;;;19.90;52.08
70434;BME280;57876;47.792;12.960;2023-11-19T10:53:45;96680.19;;;19.88;52.06
70434;BME280;57876;47.792;12.960;2023-11-19T10:56:11;96681.78;;;19.89;52.00
70434;BME280;57876;47.792;12.960;2023-11-19T10:58:36;96684.09;;;19.87;52.00
70434;BME280;57876;47.792;12.960;2023-11-19T11:01:02;96687.66;;;19.88;51.92
70434;BME280;57876;47.792;12.960;2023-11-19T11:03:36;96680.56;;;19.87;52.00
70434;BME280;57876;47.792;12.960;2023-11-19T11:06:04;96678.16;;;19.85;52.09
70434;BME280;57876;47.792;12.960;2023-11-19T11:08:30;96687.09;;;19.82;52.16
70434;BME280;57876;47.792;12.960;2023-11-19T11:10:55;96690.28;;;19.84;52.13
70434;BME280;57876;47.792;12.960;2023-11-19T11:13:22;96689.84;;;19.82;51.92
70434;BME280;57876;47.792;12.960;2023-11-19T11:15:47;96670.63;;;19.82;52.19
70434;BME280;57876;47.792;12.960;2023-11-19T11:18:12;96678.84;;;19.82;51.98
70434;BME280;57876;47.792;12.960;2023-11-19T11:20:37;96678.84;;;19.82;51.95
70434;BME280;57876;47.792;12.960;2023-11-19T11:26:18;96663.97;;;19.83;51.94
70434;BME280;57876;47.792;12.960;2023-11-19T11:28:54;96661.69;;;19.85;52.06
70434;BME280;57876;47.792;12.960;2023-11-19T11:36:53;96647.25;;;19.88;52.04
70434;BME280;57876;47.792;12.960;2023-11-19T11:39:24;96638.69;;;19.90;51.81
70434;BME280;57876;47.792;12.960;2023-11-19T11:50:20;96641.78;;;19.88;51.89
70434;BME280;57876;47.792;12.960;2023-11-19T11:57:58;96620.84;;;19.84;51.85
70434;BME280;57876;47.792;12.960;2023-11-19T12:02:57;96624.84;;;19.86;52.04
70434;BME280;57876;47.792;12.960;2023-11-19T12:05:23;96635.81;;;19.86;52.04
70434;BME280;57876;47.792;12.960;2023-11-19T12:07:55;96627.16;;;19.84;52.01
70434;BME280;57876;47.792;12.960;2023-11-19T12:10:20;96630.25;;;19.83;52.30
70434;BME280;57876;47.792;12.960;2023-11-19T12:12:46;96638.81;;;19.81;52.43
70434;BME280;57876;47.792;12.960;2023-11-19T12:15:10;96633.31;;;19.81;52.21
70434;BME280;57876;47.792;12.960;2023-11-19T12:17:47;96644.31;;;19.81;52.09
70434;BME280;57876;47.792;12.960;2023-11-19T12:20:17;96641.13;;;19.79;52.13
70434;BME280;57876;47.792;12.960;2023-11-19T12:22:43;96641.13;;;19.79;52.09
70434;BME280;57876;47.792;12.960;2023-11-19T12:25:09;96639.97;;;19.80;52.19
70434;BME280;57876;47.792;12.960;2023-11-19T12:27:35;96638.81;;;19.81;52.18
70434;BME280;57876;47.792;12.960;2023-11-19T12:30:00;96639.97;;;19.80;52.12
70434;BME280;57876;47.792;12.960;2023-11-19T12:32:25;96629.78;;;19.80;52.02
70434;BME280;57876;47.792;12.960;2023-11-19T12:34:49;96631.03;;;19.83;52.26
70434;BME280;57876;47.792;12.960;2023-11-19T12:37:14;96623.25;;;19.85;52.18
70434;BME280;57876;47.792;12.960;2023-11-19T12:39:39;96617.44;;;19.87;52.08
70434;BME280;57876;47.792;12.960;2023-11-19T12:42:04;96613.53;;;19.88;52.03
70434;BME280;57876;47.792;12.960;2023-11-19T12:44:29;96609.28;;;19.90;51.78
70434;BME280;57876;47.792;12.960;2023-11-19T12:47:04;96607.00;;;19.92;52.26
70434;BME280;57876;47.792;12.960;2023-11-19T12:49:30;96600.81;;;19.95;51.83
70434;BME280;57876;47.792;12.960;2023-11-19T12:51:55;96607.88;;;19.96;51.84
70434;BME280;57876;47.792;12.960;2023-11-19T12:54:19;96603.19;;;19.97;52.04
70434;BME280;57876;47.792;12.960;2023-11-19T12:56:53;96607.53;;;19.98;52.22
70434;BME280;57876;47.792;12.960;2023-11-19T12:59:17;96599.31;;;19.98;52.01
70434;BME280;57876;47.792;12.960;2023-11-19T13:01:56;96600.44;;;19.97;51.98
70434;BME280;57876;47.792;12.960;2023-11-19T13:04:20;96604.81;;;19.98;51.86
70434;BME280;57876;47.792;12.960;2023-11-19T13:06:45;96589.13;;;19.98;51.81
70434;BME280;57876;47.792;12.960;2023-11-19T13:09:21;96598.06;;;19.95;51.77